Cincinnati, Ohio
Traffic Map
Current Weather Conditions
Cincinnati, Ohio
Clear Haze
Clear

Feels Like: 6°
Wind Chill: Ceiling: Unl
Heat Index: Visibility: 6mi
Dew Point: Wind: 3mph
Humidity: 100% Direction: 50° (NE)
Pressure: 30.31in Gusts: 0mph
Raw Report DataKLUK 230553Z 05003KT 6SM R21L/4500VP6000FT BR CLR 06/06 A3031 RMK AO2 SLP263 T00610061 10133 20061 51008
Traffic Incident Summary
Active as of:
Severity:
Category:
InformationThere was an issue retrieving the traffic information for this location. Please try a different location or try again shortly.
Advertisements
Track Severe Weather on mobile